Time;durP1;ratioP1;P1;durP2;ratioP2;P2;SDS_P1;SDS_P2;PMS_P1;PMS_P2;Temp;Humidity;BMP_temperature;BMP_pressure;BME280_temperature;BME280_humidity;BME280_pressure;Samples;Min_cycle;Max_cycle;Signal;HPM_P1;HPM_P2
2021/03/07 00:00:25;;;;;;;21.20;11.07;;;2.10;83.60;;;;;;5034478;28;20065;-85
2021/03/07 00:02:52;;;;;;;20.33;10.50;;;2.00;84.20;;;;;;5037577;28;20029;-85
2021/03/07 00:05:18;;;;;;;18.33;10.00;;;2.00;84.10;;;;;;5039111;28;20100;-84
2021/03/07 00:07:45;;;;;;;19.67;10.70;;;1.90;84.50;;;;;;5038878;28;20056;-84
2021/03/07 00:10:12;;;;;;;21.43;10.67;;;1.90;85.40;;;;;;5036620;28;20304;-85
2021/03/07 00:12:39;;;;;;;17.10;9.90;;;1.90;85.20;;;;;;5038652;28;20021;-85
2021/03/07 00:15:06;;;;;;;20.63;10.83;;;1.80;85.00;;;;;;5060911;22;20490;-85
2021/03/07 00:17:32;;;;;;;18.67;10.70;;;1.80;85.30;;;;;;5034096;28;20025;-85
2021/03/07 00:19:58;;;;;;;21.73;11.10;;;1.80;85.50;;;;;;5034690;28;20022;-85
2021/03/07 00:22:23;;;;;;;19.10;10.97;;;1.70;85.60;;;;;;5034041;28;20025;-85
2021/03/07 00:24:49;;;;;;;21.53;10.83;;;1.70;85.50;;;;;;5035358;28;20120;-87
2021/03/07 00:27:15;;;;;;;20.93;10.77;;;1.70;85.60;;;;;;5034271;28;20021;-86
2021/03/07 00:29:40;;;;;;;20.63;10.20;;;1.70;86.00;;;;;;5033432;28;20024;-86
2021/03/07 00:32:06;;;;;;;20.33;10.97;;;1.70;85.80;;;;;;5035224;28;20021;-86
2021/03/07 00:34:32;;;;;;;22.00;11.07;;;1.70;85.80;;;;;;5033820;28;20036;-85
2021/03/07 00:36:57;;;;;;;18.27;10.50;;;1.70;85.70;;;;;;5033989;28;20474;-85
2021/03/07 00:39:23;;;;;;;21.07;10.67;;;1.70;85.60;;;;;;5033393;28;20494;-85
2021/03/07 00:41:48;;;;;;;14.53;9.43;;;1.60;85.60;;;;;;5033731;28;20025;-85
2021/03/07 00:44:17;;;;;;;18.90;10.83;;;1.60;85.50;;;;;;5035027;28;20075;-86
2021/03/07 00:46:47;;;;;;;18.00;10.32;;;1.60;85.60;;;;;;5033910;28;20104;-85
2021/03/07 00:49:20;;;;;;;15.00;9.40;;;1.60;85.60;;;;;;5033463;28;20091;-85
2021/03/07 00:51:47;;;;;;;18.07;10.37;;;1.60;85.90;;;;;;5033565;28;20025;-85
2021/03/07 00:54:13;;;;;;;16.83;10.17;;;1.70;85.60;;;;;;5035233;28;20021;-85
2021/03/07 00:56:39;;;;;;;20.40;10.93;;;1.60;86.00;;;;;;5034585;28;20033;-86
2021/03/07 00:59:04;;;;;;;17.63;10.07;;;1.60;86.00;;;;;;5034060;28;20394;-85
2021/03/07 01:01:30;;;;;;;18.90;10.80;;;1.60;85.80;;;;;;5033255;28;20116;-85
2021/03/07 01:03:56;;;;;;;17.27;9.87;;;1.60;86.30;;;;;;5033274;28;20117;-85
2021/03/07 01:06:21;;;;;;;18.30;9.40;;;1.50;86.30;;;;;;5033004;28;20470;-86
2021/03/07 01:08:47;;;;;;;16.77;9.53;;;1.50;86.60;;;;;;5033394;28;20068;-87
2021/03/07 01:11:13;;;;;;;17.23;10.30;;;1.50;87.10;;;;;;5032715;28;20116;-85
2021/03/07 01:13:38;;;;;;;15.67;9.57;;;1.50;86.60;;;;;;5033287;28;20124;-85
2021/03/07 01:16:05;;;;;;;15.20;9.67;;;1.60;86.40;;;;;;5032725;28;20114;-84
2021/03/07 01:18:30;;;;;;;14.57;9.33;;;1.50;86.60;;;;;;5033107;28;20116;-85
2021/03/07 01:20:56;;;;;;;17.53;10.47;;;1.60;86.40;;;;;;5032318;28;20628;-85
2021/03/07 01:23:22;;;;;;;15.97;9.27;;;1.60;86.50;;;;;;5032893;28;20053;-85
2021/03/07 01:25:48;;;;;;;19.23;9.50;;;1.60;86.40;;;;;;5032580;28;20110;-86
2021/03/07 01:28:14;;;;;;;18.60;10.07;;;1.60;86.30;;;;;;5032685;28;20033;-85
2021/03/07 01:30:41;;;;;;;18.23;9.53;;;1.60;86.20;;;;;;5032237;28;20032;-85
2021/03/07 01:33:07;;;;;;;17.23;9.20;;;1.60;86.90;;;;;;5032305;28;20041;-86
2021/03/07 01:35:33;;;;;;;14.90;8.60;;;1.70;86.10;;;;;;5033761;28;20040;-85
2021/03/07 01:37:59;;;;;;;18.27;9.67;;;1.70;85.90;;;;;;5032702;28;20025;-85
2021/03/07 01:40:35;;;;;;;23.00;9.00;;;1.80;85.70;;;;;;5031952;28;20481;-85
2021/03/07 01:43:03;;;;;;;18.43;9.70;;;1.80;85.60;;;;;;5032525;28;20032;-86
2021/03/07 01:45:31;;;;;;;17.77;9.63;;;1.90;85.50;;;;;;5032021;28;20029;-85
2021/03/07 01:48:00;;;;;;;17.83;9.40;;;1.90;85.10;;;;;;5032511;28;20029;-85
2021/03/07 01:50:28;;;;;;;15.65;9.55;;;1.80;84.80;;;;;;5031923;28;20021;-85
2021/03/07 01:52:54;;;;;;;18.90;9.90;;;1.90;84.80;;;;;;5033297;28;20032;-85
2021/03/07 01:55:26;;;;;;;18.87;8.90;;;1.80;85.00;;;;;;5032047;28;20030;-85
2021/03/07 01:58:03;;;;;;;19.70;9.93;;;1.80;85.10;;;;;;5032242;28;20076;-85
2021/03/07 02:00:29;;;;;;;17.20;9.77;;;1.80;85.40;;;;;;5031959;28;20025;-86
2021/03/07 02:02:55;;;;;;;19.30;9.80;;;1.70;85.80;;;;;;5032538;28;20030;-84
2021/03/07 02:05:22;;;;;;;15.70;8.97;;;1.70;86.00;;;;;;5036480;28;20021;-84
2021/03/07 02:07:48;;;;;;;17.33;9.17;;;1.60;86.40;;;;;;5036544;28;20025;-85
2021/03/07 02:10:41;;;;;;;17.90;9.60;;;1.60;86.60;;;;;;5038353;28;20049;-84
2021/03/07 02:13:17;;;;;;;15.93;9.07;;;1.60;86.80;;;;;;5034783;28;20034;-84
2021/03/07 02:15:49;;;;;;;15.37;9.33;;;1.50;87.00;;;;;;5037640;28;20033;-84
2021/03/07 02:18:17;;;;;;;16.50;9.73;;;1.50;87.20;;;;;;5037918;28;20029;-84
2021/03/07 02:20:49;;;;;;;17.50;9.70;;;1.40;87.30;;;;;;5035594;28;20112;-84
2021/03/07 02:23:21;;;;;;;16.27;9.33;;;1.50;87.20;;;;;;5037129;28;20025;-84
2021/03/07 02:25:48;;;;;;;18.53;10.30;;;1.50;87.10;;;;;;5035937;28;20378;-84
2021/03/07 02:28:14;;;;;;;17.90;9.10;;;1.50;87.20;;;;;;5035484;28;20452;-84
2021/03/07 02:30:40;;;;;;;19.07;9.50;;;1.50;87.20;;;;;;5036832;28;20022;-84
2021/03/07 02:33:32;;;;;;;15.03;9.40;;;1.40;87.20;;;;;;5034990;28;20021;-84
2021/03/07 02:36:17;;;;;;;15.80;9.07;;;1.30;87.50;;;;;;5037153;28;20032;-84
2021/03/07 02:38:48;;;;;;;16.93;9.50;;;1.30;87.50;;;;;;5035590;28;20025;-85
2021/03/07 02:41:16;;;;;;;17.03;10.00;;;1.40;87.80;;;;;;5035991;28;20113;-84
2021/03/07 02:43:45;;;;;;;14.98;7.72;;;1.30;88.00;;;;;;5034939;28;20036;-84
2021/03/07 02:46:14;;;;;;;18.42;9.57;;;1.30;88.00;;;;;;5036274;28;20069;-84
2021/03/07 02:48:42;;;;;;;17.90;9.65;;;1.20;87.90;;;;;;5034073;28;20167;-84
2021/03/07 02:51:10;;;;;;;19.67;10.77;;;1.20;87.70;;;;;;5031431;28;20033;-85
2021/03/07 02:53:39;;;;;;;16.43;9.90;;;1.10;87.60;;;;;;5030968;28;20030;-85
2021/03/07 02:56:16;;;;;;;15.57;9.65;;;1.10;88.20;;;;;;5031005;28;20036;-84
2021/03/07 02:58:44;;;;;;;17.13;10.07;;;1.00;88.30;;;;;;5030985;28;20482;-85
2021/03/07 03:01:15;;;;;;;18.37;10.73;;;1.00;88.40;;;;;;5030428;28;20083;-85
2021/03/07 03:03:43;;;;;;;18.50;9.90;;;0.90;88.50;;;;;;5032023;28;20038;-85
2021/03/07 03:06:10;;;;;;;14.70;9.60;;;0.90;88.50;;;;;;5029636;28;20022;-84
2021/03/07 03:08:38;;;;;;;17.83;10.03;;;0.90;88.80;;;;;;5031306;28;20108;-85
2021/03/07 03:11:04;;;;;;;16.80;10.30;;;0.90;88.70;;;;;;5030246;28;20042;-85
2021/03/07 03:13:34;;;;;;;17.60;10.73;;;0.90;89.00;;;;;;5030780;28;20437;-86
2021/03/07 03:16:01;;;;;;;18.80;10.80;;;0.90;88.90;;;;;;5030607;28;20064;-85
2021/03/07 03:18:31;;;;;;;18.00;9.83;;;0.80;89.00;;;;;;5031377;28;20087;-85
2021/03/07 03:21:06;;;;;;;16.40;10.07;;;0.80;89.40;;;;;;5030734;28;20029;-85
2021/03/07 03:23:31;;;;;;;18.30;10.40;;;0.70;89.60;;;;;;5031050;28;20026;-85
2021/03/07 03:25:57;;;;;;;17.67;10.43;;;0.80;89.70;;;;;;5031013;28;20037;-85
2021/03/07 03:28:24;;;;;;;21.40;10.37;;;0.80;89.50;;;;;;5030894;28;20025;-86
2021/03/07 03:30:50;;;;;;;19.77;10.57;;;0.70;89.40;;;;;;5030196;28;20026;-84
2021/03/07 03:33:16;;;;;;;16.23;10.37;;;0.70;89.70;;;;;;5031022;28;20021;-85
2021/03/07 03:35:42;;;;;;;18.17;10.07;;;0.70;90.00;;;;;;5034166;28;20040;-85
2021/03/07 03:38:07;;;;;;;17.17;9.87;;;0.70;90.00;;;;;;5036097;28;20467;-85
2021/03/07 03:40:34;;;;;;;20.10;11.23;;;0.70;90.10;;;;;;5034294;28;20140;-86
2021/03/07 03:43:10;;;;;;;18.07;10.17;;;0.70;90.00;;;;;;5034614;28;20033;-86
2021/03/07 03:45:38;;;;;;;17.73;10.37;;;0.60;90.10;;;;;;5035637;28;20517;-87
2021/03/07 03:48:11;;;;;;;19.67;10.70;;;0.60;90.10;;;;;;5034248;28;20021;-87
2021/03/07 03:50:42;;;;;;;18.60;10.73;;;0.70;89.90;;;;;;5035197;28;20021;-86
2021/03/07 03:53:14;;;;;;;18.30;10.47;;;0.70;89.70;;;;;;5034393;28;20021;-86
2021/03/07 03:55:42;;;;;;;19.47;10.77;;;0.70;90.10;;;;;;5034081;28;20478;-87
2021/03/07 03:58:10;;;;;;;17.97;10.83;;;0.60;90.20;;;;;;5034151;28;20056;-86
2021/03/07 04:00:39;;;;;;;20.90;10.80;;;0.70;90.20;;;;;;5033649;28;20025;-86
2021/03/07 04:03:10;;;;;;;16.77;10.60;;;0.70;90.10;;;;;;5034251;28;20021;-86
2021/03/07 04:05:36;;;;;;;18.60;10.43;;;0.60;90.10;;;;;;5034018;28;20066;-86
2021/03/07 04:08:02;;;;;;;20.43;11.27;;;0.70;90.00;;;;;;5034022;28;20026;-86
2021/03/07 04:10:29;;;;;;;17.33;10.70;;;0.70;90.10;;;;;;5033379;28;20017;-87
2021/03/07 04:12:59;;;;;;;19.17;10.33;;;0.70;90.00;;;;;;5033930;28;20021;-87
2021/03/07 04:15:27;;;;;;;20.27;11.90;;;0.70;90.10;;;;;;5034107;28;20072;-86
2021/03/07 04:17:54;;;;;;;19.53;11.47;;;0.70;90.30;;;;;;5033848;28;20021;-86
2021/03/07 04:20:20;;;;;;;21.53;11.60;;;0.70;90.40;;;;;;5033333;28;20068;-87
2021/03/07 04:22:48;;;;;;;21.40;11.27;;;0.70;90.40;;;;;;5033838;28;20049;-86
2021/03/07 04:25:15;;;;;;;17.80;10.97;;;0.70;90.60;;;;;;5035063;28;20057;-86
2021/03/07 04:27:41;;;;;;;18.73;11.43;;;0.70;90.80;;;;;;5033828;28;20429;-88
2021/03/07 04:30:07;;;;;;;21.13;11.50;;;0.60;90.30;;;;;;5033045;28;20021;-86
2021/03/07 04:32:37;;;;;;;19.97;11.13;;;0.60;90.30;;;;;;5033675;28;20651;-86
2021/03/07 04:35:04;;;;;;;18.13;10.97;;;0.60;90.40;;;;;;5033541;28;20029;-86
2021/03/07 04:37:30;;;;;;;17.87;11.80;;;0.60;90.50;;;;;;5033201;28;20028;-87
2021/03/07 04:39:56;;;;;;;19.23;11.90;;;0.60;90.30;;;;;;5034100;28;20026;-86
2021/03/07 04:42:23;;;;;;;20.73;11.50;;;0.60;90.40;;;;;;5034823;28;20048;-86
2021/03/07 04:44:51;;;;;;;24.27;10.90;;;0.60;90.40;;;;;;5033353;28;20037;-87
2021/03/07 04:47:17;;;;;;;20.00;11.07;;;0.50;90.50;;;;;;5032897;28;20021;-86
2021/03/07 04:49:42;;;;;;;22.10;12.60;;;0.50;90.50;;;;;;5032778;28;20099;-86
2021/03/07 04:52:08;;;;;;;19.03;11.20;;;0.50;90.30;;;;;;5033145;28;20477;-86
2021/03/07 04:54:34;;;;;;;21.10;11.23;;;0.50;90.30;;;;;;5034300;28;20051;-86
2021/03/07 04:57:03;;;;;;;22.10;11.47;;;0.40;90.50;;;;;;5033058;28;20022;-87
2021/03/07 04:59:29;;;;;;;;;;;0.40;90.30;;;;;;5033117;28;20613;-87
2021/03/07 05:01:55;;;;;;;19.17;11.13;;;0.40;90.40;;;;;;5033092;28;19977;-87
2021/03/07 05:04:21;;;;;;;19.70;11.23;;;0.40;90.40;;;;;;5032823;28;20035;-86
2021/03/07 05:06:47;;;;;;;22.13;12.10;;;0.30;90.50;;;;;;5033004;28;20026;-87
2021/03/07 05:09:12;;;;;;;23.43;11.67;;;0.30;90.50;;;;;;5033601;28;20025;-87
2021/03/07 05:11:38;;;;;;;19.13;11.60;;;0.40;90.80;;;;;;5034232;28;20382;-87
2021/03/07 05:14:04;;;;;;;21.30;11.63;;;0.40;90.50;;;;;;5032722;28;20414;-86
2021/03/07 05:16:30;;;;;;;20.50;11.97;;;0.30;90.60;;;;;;5032356;28;20486;-86
2021/03/07 05:18:56;;;;;;;21.97;11.73;;;0.40;90.50;;;;;;5033444;28;20029;-86
2021/03/07 05:21:26;;;;;;;20.20;11.47;;;0.30;90.50;;;;;;5032685;28;20056;-87
2021/03/07 05:23:54;;;;;;;19.33;10.98;;;0.30;90.50;;;;;;5033149;28;20112;-87
2021/03/07 05:26:20;;;;;;;21.40;11.33;;;0.40;90.60;;;;;;5033693;28;20026;-86
2021/03/07 05:28:46;;;;;;;19.70;11.50;;;0.30;90.40;;;;;;5033651;28;20049;-88
2021/03/07 05:31:11;;;;;;;19.37;11.27;;;0.30;90.50;;;;;;5033291;28;20053;-86
2021/03/07 05:33:37;;;;;;;21.40;11.00;;;0.40;90.30;;;;;;5032504;28;20386;-87
2021/03/07 05:36:03;;;;;;;21.40;11.23;;;0.40;90.30;;;;;;5033559;28;20040;-86
2021/03/07 05:38:28;;;;;;;18.30;10.93;;;0.40;90.30;;;;;;5033471;28;20029;-87
2021/03/07 05:40:54;;;;;;;20.47;10.97;;;0.30;90.20;;;;;;5031738;28;20095;-87
2021/03/07 05:43:20;;;;;;;21.33;10.60;;;0.30;90.20;;;;;;5032284;28;20029;-86
2021/03/07 05:45:47;;;;;;;19.27;11.60;;;0.20;90.30;;;;;;5032197;28;20104;-87
2021/03/07 05:48:14;;;;;;;21.63;11.17;;;0.30;90.50;;;;;;5034232;28;20033;-85
2021/03/07 05:50:39;;;;;;;20.00;11.23;;;0.20;90.60;;;;;;5035693;28;20101;-84
2021/03/07 05:53:05;;;;;;;17.00;10.83;;;0.20;90.70;;;;;;5035906;28;20056;-85
2021/03/07 05:55:33;;;;;;;17.67;10.57;;;0.20;90.60;;;;;;5037115;28;20033;-84
2021/03/07 05:58:01;;;;;;;20.70;11.37;;;0.20;90.60;;;;;;5034300;28;20059;-84
2021/03/07 06:00:27;;;;;;;21.50;11.40;;;0.20;90.50;;;;;;5035229;28;20044;-85
2021/03/07 06:02:53;;;;;;;20.47;10.90;;;0.20;90.60;;;;;;5035505;28;20475;-85
2021/03/07 06:05:19;;;;;;;22.23;11.13;;;0.10;90.70;;;;;;5035478;28;20032;-84
2021/03/07 06:07:49;;;;;;;20.43;11.00;;;0.00;90.80;;;;;;5035717;28;20452;-85
2021/03/07 06:10:17;;;;;;;17.07;10.37;;;0.10;90.90;;;;;;5034766;28;20059;-85
2021/03/07 06:12:55;;;;;;;18.80;10.37;;;0.00;90.90;;;;;;5035328;28;20121;-84
2021/03/07 06:15:21;;;;;;;21.13;9.83;;;0.00;91.00;;;;;;5035427;28;20025;-85
2021/03/07 06:17:50;;;;;;;17.30;10.23;;;0.10;91.40;;;;;;5032740;28;20029;-85
2021/03/07 06:20:17;;;;;;;17.47;10.37;;;0.10;91.30;;;;;;5030962;28;20036;-85
2021/03/07 06:23:02;;;;;;;18.67;10.60;;;0.20;91.40;;;;;;5031372;28;20026;-85
2021/03/07 06:25:29;;;;;;;18.37;9.90;;;0.30;91.20;;;;;;5031231;28;20029;-85
2021/03/07 06:27:56;;;;;;;20.03;10.60;;;0.40;91.10;;;;;;5032767;28;20030;-85
2021/03/07 06:30:26;;;;;;;18.07;10.87;;;0.40;91.00;;;;;;5033511;28;20048;-85
2021/03/07 06:32:54;;;;;;;17.67;10.40;;;0.50;91.00;;;;;;5032616;28;20423;-84
2021/03/07 06:35:27;;;;;;;20.13;10.57;;;0.40;91.10;;;;;;5032427;28;20540;-85
2021/03/07 06:38:05;;;;;;;19.57;10.20;;;0.50;91.20;;;;;;5032340;28;20625;-85
2021/03/07 06:40:39;;;;;;;18.60;10.17;;;0.50;91.20;;;;;;5032128;28;20026;-85
2021/03/07 06:43:22;;;;;;;20.13;10.60;;;0.50;91.50;;;;;;5031850;28;20399;-85
2021/03/07 06:45:49;;;;;;;16.33;10.70;;;0.60;91.10;;;;;;5031764;28;20108;-85
2021/03/07 06:48:15;;;;;;;23.87;11.77;;;0.70;91.00;;;;;;5033035;28;20025;-85
2021/03/07 06:50:58;;;;;;;21.83;11.00;;;0.60;91.20;;;;;;5030781;28;20032;-85
2021/03/07 06:53:37;;;;;;;22.37;11.33;;;0.60;91.30;;;;;;5031293;28;20030;-85
2021/03/07 06:56:04;;;;;;;;;;;0.60;91.30;;;;;;5033686;28;20099;-85
2021/03/07 06:58:29;;;;;;;19.97;11.70;;;0.60;91.20;;;;;;5032409;28;19905;-85
2021/03/07 07:00:55;;;;;;;18.77;10.27;;;0.70;91.10;;;;;;5031361;28;20382;-85
2021/03/07 07:03:21;;;;;;;16.57;10.07;;;0.60;90.80;;;;;;5032247;28;20083;-85
2021/03/07 07:05:48;;;;;;;16.80;10.57;;;0.60;90.90;;;;;;5031191;28;20029;-85
2021/03/07 07:08:16;;;;;;;18.17;10.40;;;0.50;90.90;;;;;;5030990;28;20022;-85
2021/03/07 07:10:56;;;;;;;20.03;11.03;;;0.60;91.10;;;;;;5036533;28;20562;-86
2021/03/07 07:13:23;;;;;;;18.02;10.60;;;0.50;91.40;;;;;;5037379;28;20112;-84
2021/03/07 07:16:09;;;;;;;16.83;10.30;;;0.60;91.30;;;;;;5038051;28;20044;-85
2021/03/07 07:18:37;;;;;;;19.27;10.80;;;0.70;91.30;;;;;;5038281;28;20390;-85
2021/03/07 07:21:09;;;;;;;23.00;10.87;;;0.70;91.20;;;;;;5037361;28;20532;-84
2021/03/07 07:23:35;;;;;;;18.77;11.67;;;0.80;91.50;;;;;;5041349;28;20040;-84
2021/03/07 07:26:01;;;;;;;20.80;11.53;;;0.90;91.50;;;;;;5043771;28;20065;-84
2021/03/07 07:28:28;;;;;;;20.37;11.17;;;1.10;91.40;;;;;;5044786;28;20035;-84
2021/03/07 07:30:56;;;;;;;19.17;12.33;;;1.10;91.20;;;;;;5039224;28;20140;-85
2021/03/07 07:33:42;;;;;;;24.83;12.53;;;1.20;91.20;;;;;;5042854;28;20437;-85
2021/03/07 07:36:12;;;;;;;23.17;11.47;;;1.40;90.80;;;;;;5043629;28;20030;-84
2021/03/07 07:38:39;;;;;;;21.50;11.73;;;1.50;90.70;;;;;;5041565;28;20029;-84
2021/03/07 07:41:38;;;;;;;23.93;12.67;;;1.50;90.60;;;;;;5040990;28;20060;-84
2021/03/07 07:44:06;;;;;;;21.37;12.53;;;1.50;90.40;;;;;;5042541;28;20083;-84
2021/03/07 07:46:33;;;;;;;23.33;13.27;;;1.60;90.20;;;;;;5043961;28;20036;-84
2021/03/07 07:49:00;;;;;;;21.17;12.93;;;1.60;90.30;;;;;;5041529;28;20029;-84
2021/03/07 07:51:38;;;;;;;25.60;13.10;;;1.60;90.30;;;;;;5041731;28;20036;-84
2021/03/07 07:54:06;;;;;;;22.42;13.15;;;1.60;90.20;;;;;;5043383;28;20030;-86
2021/03/07 07:56:58;;;;;;;21.37;13.20;;;1.60;90.20;;;;;;5042173;28;20029;-85
2021/03/07 07:59:50;;;;;;;20.43;12.87;;;1.70;90.10;;;;;;5041287;28;20037;-86
2021/03/07 08:02:49;;;;;;;23.60;13.23;;;1.70;90.20;;;;;;5048148;28;20045;-86
2021/03/07 08:05:20;;;;;;;23.05;14.20;;;1.80;90.00;;;;;;5039756;28;20117;-84
2021/03/07 08:07:59;;;;;;;21.33;13.77;;;1.80;90.20;;;;;;5038358;28;20043;-86
2021/03/07 08:10:38;;;;;;;25.27;14.40;;;1.80;90.30;;;;;;5041439;28;20536;-86
2021/03/07 08:13:04;;;;;;;21.87;14.03;;;1.90;90.40;;;;;;5041985;28;20092;-86
2021/03/07 08:15:31;;;;;;;26.37;13.23;;;1.90;90.30;;;;;;5038072;28;20402;-86
2021/03/07 08:17:58;;;;;;;27.07;14.00;;;2.00;90.30;;;;;;5036881;28;20379;-86
2021/03/07 08:20:40;;;;;;;29.07;13.83;;;2.00;90.40;;;;;;5035195;28;20038;-87
2021/03/07 08:23:16;;;;;;;25.03;14.57;;;2.10;90.40;;;;;;5034019;28;20517;-86
2021/03/07 08:25:50;;;;;;;20.33;12.83;;;2.20;90.30;;;;;;5035100;28;20057;-86
2021/03/07 08:28:28;;;;;;;24.97;12.20;;;2.20;90.30;;;;;;5033757;28;20056;-86
2021/03/07 08:31:00;;;;;;;19.63;10.73;;;2.30;90.30;;;;;;5033191;28;20038;-86
2021/03/07 08:33:33;;;;;;;18.13;11.13;;;2.40;90.20;;;;;;5034075;28;20033;-86
2021/03/07 08:36:18;;;;;;;18.53;10.83;;;2.50;90.30;;;;;;5034876;28;20116;-87
2021/03/07 08:38:53;;;;;;;19.60;10.50;;;2.60;90.20;;;;;;5033594;28;20037;-86
2021/03/07 08:41:34;;;;;;;19.27;10.00;;;2.60;90.20;;;;;;5034853;28;20041;-86
2021/03/07 08:44:00;;;;;;;16.57;9.23;;;2.70;90.20;;;;;;5033368;28;20029;-86
2021/03/07 08:46:39;;;;;;;18.40;9.60;;;2.70;89.90;;;;;;5033447;28;20120;-85
2021/03/07 08:49:14;;;;;;;17.63;9.95;;;2.70;89.80;;;;;;5033691;28;20036;-85
2021/03/07 08:51:45;;;;;;;14.70;9.77;;;2.80;89.80;;;;;;5033873;28;20029;-85
2021/03/07 08:54:13;;;;;;;18.40;9.87;;;2.90;89.60;;;;;;5034967;28;20026;-86
2021/03/07 08:56:41;;;;;;;14.50;9.00;;;2.90;89.40;;;;;;5035755;28;20025;-84
2021/03/07 08:59:08;;;;;;;17.13;9.63;;;3.00;88.90;;;;;;5034344;28;20405;-84
2021/03/07 09:01:34;;;;;;;13.47;8.10;;;3.00;88.70;;;;;;5034306;28;20125;-86
2021/03/07 09:04:03;;;;;;;14.53;8.00;;;3.00;88.20;;;;;;5038539;28;20021;-85
2021/03/07 09:06:40;;;;;;;14.88;8.45;;;3.00;88.00;;;;;;5037973;28;20029;-85
2021/03/07 09:09:11;;;;;;;17.30;7.87;;;3.10;87.80;;;;;;5034184;28;20033;-87
2021/03/07 09:11:45;;;;;;;11.83;7.10;;;3.20;87.60;;;;;;5033003;28;20037;-87
2021/03/07 09:14:11;;;;;;;14.23;7.67;;;3.20;87.40;;;;;;5034208;28;20036;-87
2021/03/07 09:16:46;;;;;;;14.33;7.60;;;3.20;87.10;;;;;;5033051;28;20181;-86
2021/03/07 09:19:22;;;;;;;14.00;6.70;;;3.30;86.40;;;;;;5033848;28;20474;-86
2021/03/07 09:22:06;;;;;;;12.10;6.17;;;3.30;86.10;;;;;;5032927;28;20021;-87
2021/03/07 09:24:32;;;;;;;12.07;5.37;;;3.30;85.20;;;;;;5032717;28;20033;-87
2021/03/07 09:27:11;;;;;;;9.43;4.80;;;3.40;84.80;;;;;;5032580;28;20382;-86
2021/03/07 09:29:50;;;;;;;10.38;4.50;;;3.40;84.10;;;;;;5032352;28;20112;-86
2021/03/07 09:32:33;;;;;;;8.43;4.75;;;3.40;83.30;;;;;;5033810;28;20064;-86
2021/03/07 09:35:00;;;;;;;11.13;5.40;;;3.40;83.00;;;;;;5032413;28;20021;-86
2021/03/07 09:37:27;;;;;;;8.83;4.57;;;3.50;82.40;;;;;;5032428;28;20112;-87
2021/03/07 09:39:54;;;;;;;8.23;4.53;;;3.50;81.00;;;;;;5031910;28;20029;-86
2021/03/07 09:42:20;;;;;;;8.90;4.43;;;3.50;80.90;;;;;;5033509;28;20144;-87
2021/03/07 09:44:46;;;;;;;8.20;3.93;;;3.50;80.90;;;;;;5032497;28;20029;-87
2021/03/07 09:47:14;;;;;;;6.00;3.80;;;3.60;80.70;;;;;;5032805;28;20332;-87
2021/03/07 09:49:41;;;;;;;10.53;4.10;;;3.60;79.10;;;;;;5033403;28;20014;-87
2021/03/07 09:52:08;;;;;;;5.30;3.30;;;3.60;78.70;;;;;;5033401;28;20092;-87
2021/03/07 09:54:34;;;;;;;5.80;3.37;;;3.70;78.40;;;;;;5032284;28;20037;-87
2021/03/07 09:57:00;;;;;;;7.83;3.80;;;3.70;78.80;;;;;;5033677;28;20053;-87
2021/03/07 09:59:32;;;;;;;5.87;3.30;;;3.70;79.10;;;;;;5031469;28;20498;-87
2021/03/07 10:02:04;;;;;;;6.83;3.30;;;3.80;78.80;;;;;;5033500;28;20390;-87
2021/03/07 10:04:44;;;;;;;7.03;3.40;;;3.80;78.00;;;;;;5032011;28;20029;-87
2021/03/07 10:07:09;;;;;;;;;;;3.90;78.10;;;;;;5033764;28;20045;-87
2021/03/07 10:10:05;;;;;;;6.30;3.33;;;3.90;78.20;;;;;;5032583;28;19947;-87
2021/03/07 10:13:05;;;;;;;6.40;3.10;;;4.00;77.90;;;;;;5031943;28;20018;-87
2021/03/07 10:15:31;;;;;;;6.40;3.10;;;4.00;77.80;;;;;;5020751;28;20116;-86
2021/03/07 10:18:18;;;;;;;6.60;3.20;;;4.10;77.90;;;;;;5032241;28;20556;-87
2021/03/07 10:20:47;;;;;;;9.23;3.57;;;4.20;77.80;;;;;;5030915;28;20029;-87
2021/03/07 10:23:13;;;;;;;6.30;3.17;;;4.20;76.50;;;;;;5031731;28;20028;-87
2021/03/07 10:25:46;;;;;;;7.73;3.47;;;4.20;75.40;;;;;;5031920;28;20038;-87
2021/03/07 10:28:30;;;;;;;6.20;3.43;;;4.30;75.70;;;;;;5033590;28;20030;-86
2021/03/07 10:31:11;;;;;;;8.40;3.70;;;4.30;75.40;;;;;;5032674;28;20105;-86
2021/03/07 10:33:37;;;;;;;5.83;3.67;;;4.40;73.00;;;;;;5031720;28;20641;-87
2021/03/07 10:36:13;;;;;;;8.43;4.10;;;4.30;71.70;;;;;;5031264;28;20030;-86
2021/03/07 10:38:45;;;;;;;7.03;4.03;;;4.30;69.60;;;;;;5031337;28;20560;-87
2021/03/07 10:41:24;;;;;;;6.27;4.03;;;4.30;69.60;;;;;;5030995;28;20040;-86
2021/03/07 10:43:58;;;;;;;7.75;4.57;;;4.30;70.40;;;;;;5032434;28;20053;-86
2021/03/07 10:46:27;;;;;;;7.40;4.53;;;4.30;70.60;;;;;;5032722;28;20033;-86
2021/03/07 10:48:54;;;;;;;;;;;4.30;70.20;;;;;;5031682;28;20021;-88
2021/03/07 10:51:20;;;;;;;9.37;4.93;;;4.30;70.60;;;;;;5031884;28;19905;-87
2021/03/07 10:53:46;;;;;;;8.70;5.30;;;4.30;70.20;;;;;;5032572;28;20025;-86
2021/03/07 10:56:12;;;;;;;7.90;5.53;;;4.40;71.00;;;;;;5032622;28;20025;-87
2021/03/07 10:58:37;;;;;;;8.80;5.93;;;4.40;70.20;;;;;;5030997;28;20032;-87
2021/03/07 11:01:03;;;;;;;8.73;5.70;;;4.50;69.80;;;;;;5031979;28;20112;-86
2021/03/07 11:03:29;;;;;;;12.50;6.00;;;4.50;69.80;;;;;;5032600;28;20052;-86
2021/03/07 11:05:55;;;;;;;10.80;6.17;;;4.60;70.00;;;;;;5032370;28;20505;-86
2021/03/07 11:08:21;;;;;;;9.93;5.93;;;4.70;69.90;;;;;;5032419;28;20026;-87
2021/03/07 11:10:47;;;;;;;11.23;5.30;;;4.70;70.00;;;;;;5031960;28;20072;-87
2021/03/07 11:13:12;;;;;;;10.70;6.43;;;4.70;69.50;;;;;;5032269;28;20025;-86
2021/03/07 11:15:38;;;;;;;12.77;7.63;;;4.60;69.30;;;;;;5032304;28;20491;-84
2021/03/07 11:18:04;;;;;;;11.13;7.30;;;4.70;68.20;;;;;;5038798;28;20087;-85
2021/03/07 11:20:30;;;;;;;10.03;6.97;;;4.60;68.40;;;;;;5035526;28;20113;-85
2021/03/07 11:22:56;;;;;;;10.90;7.63;;;4.60;68.60;;;;;;5037393;28;20032;-85
2021/03/07 11:25:21;;;;;;;12.97;7.93;;;4.60;69.20;;;;;;5037269;28;20030;-84
2021/03/07 11:27:48;;;;;;;15.40;10.23;;;4.50;68.50;;;;;;5037114;28;20029;-85
2021/03/07 11:30:14;;;;;;;19.47;12.40;;;4.50;67.70;;;;;;5036816;28;20124;-85
2021/03/07 11:32:40;;;;;;;13.97;9.33;;;4.50;67.50;;;;;;5035857;28;20053;-86
2021/03/07 11:35:06;;;;;;;13.30;8.00;;;4.50;67.70;;;;;;5038968;28;20021;-84
2021/03/07 11:37:32;;;;;;;15.30;9.90;;;4.50;68.00;;;;;;5036423;28;20133;-85
2021/03/07 11:39:57;;;;;;;25.53;15.83;;;4.60;67.20;;;;;;5036021;28;20033;-85
2021/03/07 11:42:24;;;;;;;22.00;13.57;;;4.60;65.70;;;;;;5033373;28;20025;-86
2021/03/07 11:44:49;;;;;;;18.50;11.03;;;4.70;66.10;;;;;;5031232;28;20070;-86
2021/03/07 11:47:18;;;;;;;20.40;11.83;;;4.70;66.80;;;;;;5031171;28;20021;-87
2021/03/07 11:49:44;;;;;;;15.07;10.33;;;4.70;65.50;;;;;;5030606;28;20029;-86
2021/03/07 11:52:09;;;;;;;15.73;11.10;;;4.60;66.00;;;;;;5031005;28;20017;-86
2021/03/07 11:54:36;;;;;;;15.93;11.23;;;4.60;66.10;;;;;;5034885;28;20577;-87
2021/03/07 11:57:01;;;;;;;14.63;10.37;;;4.60;65.20;;;;;;5036433;28;20104;-86
2021/03/07 11:59:28;;;;;;;14.63;9.70;;;4.60;65.70;;;;;;5039277;28;20056;-87
2021/03/07 12:01:53;;;;;;;12.60;9.13;;;4.60;65.60;;;;;;5038187;28;20030;-87
2021/03/07 12:04:19;;;;;;;13.03;9.13;;;4.60;65.80;;;;;;5037825;28;20382;-87
2021/03/07 12:06:45;;;;;;;15.67;10.80;;;4.60;65.90;;;;;;5039024;28;20092;-87
2021/03/07 12:09:11;;;;;;;14.67;9.43;;;4.70;65.00;;;;;;5037028;28;20033;-86
2021/03/07 12:11:37;;;;;;;12.33;8.07;;;4.70;65.10;;;;;;5037830;28;20137;-87
2021/03/07 12:14:02;;;;;;;10.33;7.43;;;4.70;65.30;;;;;;5037393;28;20052;-87
2021/03/07 12:16:28;;;;;;;9.40;6.27;;;4.70;65.10;;;;;;5060032;22;20042;-85
2021/03/07 12:18:53;;;;;;;9.33;4.80;;;4.80;65.40;;;;;;5034657;28;20022;-85
2021/03/07 12:21:19;;;;;;;5.70;3.60;;;4.80;65.00;;;;;;5036197;28;20052;-85
2021/03/07 12:23:45;;;;;;;7.80;3.37;;;4.80;65.70;;;;;;5038447;28;20108;-86
2021/03/07 12:26:11;;;;;;;6.17;3.23;;;4.90;66.00;;;;;;5038748;28;20030;-85
2021/03/07 12:28:36;;;;;;;7.07;3.20;;;4.90;66.00;;;;;;5037730;28;20030;-85
2021/03/07 12:31:02;;;;;;;5.83;3.53;;;4.90;65.60;;;;;;5036496;28;20039;-85
2021/03/07 12:33:28;;;;;;;5.53;3.77;;;4.90;66.00;;;;;;5037405;28;20032;-84
2021/03/07 12:35:54;;;;;;;7.30;3.57;;;4.90;65.80;;;;;;5037084;28;20025;-85
2021/03/07 12:38:20;;;;;;;6.90;3.80;;;4.90;65.90;;;;;;5036283;28;20040;-85
2021/03/07 12:40:46;;;;;;;5.63;3.40;;;4.90;65.50;;;;;;5036962;28;20405;-85
2021/03/07 12:43:11;;;;;;;5.70;3.67;;;4.80;65.60;;;;;;5037706;28;20029;-86
2021/03/07 12:45:38;;;;;;;5.93;3.50;;;4.90;65.30;;;;;;5038457;28;20033;-85
2021/03/07 12:48:04;;;;;;;7.20;3.30;;;5.00;65.90;;;;;;5038623;28;20411;-84
2021/03/07 12:50:30;;;;;;;7.90;3.53;;;5.00;65.10;;;;;;5034945;28;20029;-84
2021/03/07 12:52:55;;;;;;;5.47;3.30;;;5.00;65.10;;;;;;5035785;28;20037;-85